createdAt,value
2017-12-11T00:00:07.751Z,97566.28
2017-12-11T00:02:38.821Z,97577.48
2017-12-11T00:05:10.054Z,97589.48
2017-12-11T00:07:41.169Z,97602.23
2017-12-11T00:10:13.533Z,97602.45
2017-12-11T00:12:44.801Z,97602.98
2017-12-11T00:15:16.272Z,97610.13
2017-12-11T00:17:47.619Z,97614.38
2017-12-11T00:20:18.740Z,97614.31
2017-12-11T00:22:50.104Z,97615.48
2017-12-11T00:25:22.372Z,97621.13
2017-12-11T00:27:53.522Z,97616.52
2017-12-11T00:30:25.149Z,97623.93
2017-12-11T00:32:56.461Z,97623.18
2017-12-11T00:35:27.541Z,97624.77
2017-12-11T00:37:59.495Z,97638.21
2017-12-11T00:40:31.490Z,97641.08
2017-12-11T00:43:04.298Z,97639.21
2017-12-11T00:45:35.886Z,97641.30
2017-12-11T00:48:07.400Z,97635.47
2017-12-11T00:50:38.531Z,97633.41
2017-12-11T00:53:09.794Z,97622.90
2017-12-11T00:55:42.077Z,97627.52
2017-12-11T00:58:16.276Z,97627.82
2017-12-11T01:00:47.566Z,97627.94
2017-12-11T01:03:18.556Z,97630.68
2017-12-11T01:05:50.293Z,97630.73
2017-12-11T01:08:22.412Z,97627.52
2017-12-11T01:10:53.420Z,97621.29
2017-12-11T01:13:24.393Z,97621.98
2017-12-11T01:15:55.651Z,97617.28
2017-12-11T01:18:26.608Z,97605.09
2017-12-11T01:20:57.597Z,97591.95
2017-12-11T01:23:28.858Z,97580.61
2017-12-11T01:25:59.836Z,97566.86
2017-12-11T01:28:30.798Z,97560.50
2017-12-11T01:31:03.241Z,97568.06
2017-12-11T01:33:34.273Z,97571.14
2017-12-11T01:36:07.898Z,97562.70
2017-12-11T01:38:38.914Z,97565.47
2017-12-11T01:41:10.017Z,97563.95
2017-12-11T01:43:41.376Z,97570.11
2017-12-11T01:46:12.914Z,97578.17
2017-12-11T01:51:37.509Z,97603.06
2017-12-11T01:54:08.600Z,97610.84
2017-12-11T01:56:39.563Z,97611.59
2017-12-11T01:59:10.797Z,97612.98
2017-12-11T02:01:41.769Z,97618.34
2017-12-11T02:04:13.529Z,97628.91
2017-12-11T02:06:45.797Z,97647.84
2017-12-11T02:09:16.846Z,97650.49
2017-12-11T02:11:49.093Z,97632.96
2017-12-11T02:14:20.163Z,97629.73
2017-12-11T02:16:51.423Z,97634.32
2017-12-11T02:19:22.943Z,97638.46
2017-12-11T02:21:55.129Z,97636.35
2017-12-11T02:24:26.169Z,97631.88
2017-12-11T02:26:57.478Z,97639.69
2017-12-11T02:29:28.490Z,97641.66
2017-12-11T02:32:00.552Z,97635.35
2017-12-11T02:34:31.754Z,97639.41
2017-12-11T02:37:02.982Z,97645.60
2017-12-11T02:39:34.254Z,97651.41
2017-12-11T02:42:06.616Z,97658.55
2017-12-11T02:44:37.705Z,97647.36
2017-12-11T02:47:08.721Z,97657.89
2017-12-11T02:49:40.152Z,97667.17
2017-12-11T02:52:12.621Z,97675.09
2017-12-11T02:54:44.096Z,97673.87
2017-12-11T02:57:15.109Z,97660.88
2017-12-11T02:59:46.924Z,97660.83
2017-12-11T03:02:18.594Z,97657.79
2017-12-11T03:04:51.130Z,97657.59
2017-12-11T03:07:22.120Z,97648.34
2017-12-11T03:09:54.220Z,97642.69
2017-12-11T03:12:25.260Z,97638.56
2017-12-11T03:14:56.209Z,97629.30
2017-12-11T03:17:27.445Z,97613.47
2017-12-11T03:19:58.393Z,97608.66
2017-12-11T03:22:29.349Z,97613.33
2017-12-11T03:25:00.596Z,97621.53
2017-12-11T03:27:31.558Z,97619.86
2017-12-11T03:30:04.579Z,97616.16
2017-12-11T03:32:53.726Z,97616.53
2017-12-11T03:35:25.702Z,97615.63
2017-12-11T03:37:57.181Z,97616.23
2017-12-11T03:40:28.683Z,97622.03
2017-12-11T03:42:59.973Z,97612.04
2017-12-11T03:45:31.225Z,97607.92
2017-12-11T03:48:05.877Z,97600.80
2017-12-11T03:50:37.140Z,97596.16
2017-12-11T03:53:08.142Z,97591.14
2017-12-11T03:55:39.438Z,97588.22
2017-12-11T03:58:11.909Z,97583.28
2017-12-11T04:00:42.991Z,97575.08
2017-12-11T04:03:14.355Z,97572.61
2017-12-11T04:05:46.838Z,97572.14
2017-12-11T04:08:17.801Z,97564.15
2017-12-11T04:10:49.001Z,97561.05
2017-12-11T04:13:19.948Z,97555.88
2017-12-11T04:15:52.147Z,97552.04
2017-12-11T04:18:23.120Z,97536.81
2017-12-11T04:20:54.099Z,97532.72
2017-12-11T04:23:25.340Z,97520.65
2017-12-11T04:25:56.284Z,97500.36
2017-12-11T04:28:27.248Z,97498.88
2017-12-11T04:30:58.190Z,97500.02
2017-12-11T04:33:29.209Z,97495.36
2017-12-11T04:36:00.716Z,97482.22
2017-12-11T04:38:31.695Z,97474.98
2017-12-11T04:41:03.043Z,97463.84
2017-12-11T04:43:33.989Z,97457.65
2017-12-11T04:46:07.220Z,97452.23
2017-12-11T04:48:38.546Z,97462.47
2017-12-11T04:51:09.491Z,97465.70
2017-12-11T04:53:40.471Z,97463.78
2017-12-11T04:56:11.908Z,97460.80
2017-12-11T04:58:43.001Z,97469.15
2017-12-11T05:01:14.372Z,97477.11
2017-12-11T05:03:45.359Z,97468.04
2017-12-11T05:06:16.378Z,97471.20
2017-12-11T05:08:47.665Z,97455.52
2017-12-11T05:11:18.648Z,97449.28
2017-12-11T05:13:49.644Z,97433.46
2017-12-11T05:16:21.003Z,97417.22
2017-12-11T05:18:51.965Z,97414.19
2017-12-11T05:21:22.941Z,97406.08
2017-12-11T05:23:53.921Z,97397.91
2017-12-11T05:26:24.904Z,97396.73
2017-12-11T05:28:56.289Z,97387.67
2017-12-11T05:31:27.268Z,97384.02
2017-12-11T05:33:59.373Z,97387.05
2017-12-11T05:36:30.546Z,97385.51
2017-12-11T05:39:01.812Z,97382.63
2017-12-11T05:41:33.099Z,97382.69
2017-12-11T05:44:05.410Z,97383.84
2017-12-11T05:46:36.610Z,97391.84
2017-12-11T05:49:07.601Z,97380.02
2017-12-11T05:51:41.570Z,97382.84
2017-12-11T05:54:13.923Z,97376.52
2017-12-11T05:56:44.914Z,97378.09
2017-12-11T05:59:15.937Z,97379.87
2017-12-11T06:01:47.437Z,97368.58
2017-12-11T06:04:18.606Z,97369.69
2017-12-11T06:06:49.608Z,97370.39
2017-12-11T06:09:20.897Z,97361.84
2017-12-11T06:11:51.877Z,97358.75
2017-12-11T06:14:23.736Z,97359.67
2017-12-11T06:16:54.997Z,97359.80
2017-12-11T06:19:25.982Z,97355.04
2017-12-11T06:21:56.962Z,97359.17
2017-12-11T06:24:28.208Z,97358.70
2017-12-11T06:27:00.272Z,97359.05
2017-12-11T06:29:31.272Z,97354.09
2017-12-11T06:32:05.197Z,97348.59
2017-12-11T06:34:36.322Z,97344.47
2017-12-11T06:37:07.625Z,97350.23
2017-12-11T06:39:39.750Z,97343.38
2017-12-11T06:42:11.552Z,97350.64
2017-12-11T06:44:43.727Z,97354.98
2017-12-11T06:47:14.782Z,97362.97
2017-12-11T06:49:46.006Z,97358.09
2017-12-11T06:52:17.865Z,97356.25
2017-12-11T06:54:48.917Z,97350.20
2017-12-11T06:57:20.236Z,97337.25
2017-12-11T06:59:51.239Z,97335.89
2017-12-11T07:02:22.224Z,97324.48
2017-12-11T07:04:53.789Z,97309.91
2017-12-11T07:07:24.733Z,97309.81
2017-12-11T07:09:55.723Z,97302.42
2017-12-11T07:12:26.977Z,97297.94
2017-12-11T07:14:57.945Z,97293.81
2017-12-11T07:17:28.916Z,97292.63
2017-12-11T07:20:01.413Z,97300.70
2017-12-11T07:22:32.401Z,97304.83
2017-12-11T07:25:05.042Z,97288.27
2017-12-11T07:27:36.484Z,97285.77
2017-12-11T07:30:07.805Z,97271.08
2017-12-11T07:32:41.589Z,97272.74
2017-12-11T07:35:13.636Z,97256.09
2017-12-11T07:37:47.885Z,97265.86
2017-12-11T07:40:19.522Z,97251.55
2017-12-11T07:42:54.253Z,97245.26
2017-12-11T07:45:25.578Z,97258.80
2017-12-11T07:47:59.175Z,97244.34
2017-12-11T07:50:30.532Z,97255.94
2017-12-11T07:53:03.797Z,97259.59
2017-12-11T07:55:34.770Z,97252.38
2017-12-11T07:58:07.891Z,97262.67
2017-12-11T08:00:40.850Z,97273.90
2017-12-11T08:03:12.085Z,97271.64
2017-12-11T08:05:44.479Z,97268.83
2017-12-11T08:08:15.490Z,97259.27
2017-12-11T08:10:48.331Z,97246.53
2017-12-11T08:13:19.591Z,97244.28
2017-12-11T08:15:50.599Z,97233.82
2017-12-11T08:18:21.909Z,97227.09
2017-12-11T08:20:52.884Z,97213.30
2017-12-11T08:23:24.109Z,97212.81
2017-12-11T08:25:55.049Z,97202.41
2017-12-11T08:28:26.029Z,97210.84
2017-12-11T08:30:57.295Z,97211.03
2017-12-11T08:33:28.276Z,97200.48
2017-12-11T08:35:59.304Z,97216.05
2017-12-11T08:38:30.569Z,97195.64
2017-12-11T08:41:05.541Z,97188.71
2017-12-11T08:43:36.984Z,97175.84
2017-12-11T08:46:08.611Z,97178.98
2017-12-11T08:48:39.665Z,97189.84
2017-12-11T08:51:10.972Z,97181.25
2017-12-11T08:53:42.001Z,97176.66
2017-12-11T08:56:13.888Z,97181.88
2017-12-11T08:58:45.116Z,97211.34
2017-12-11T09:01:16.103Z,97203.10
2017-12-11T09:03:47.481Z,97216.40
2017-12-11T09:06:18.637Z,97225.18
2017-12-11T09:08:51.109Z,97226.51
2017-12-11T09:11:22.401Z,97216.84
2017-12-11T09:13:53.425Z,97216.30
2017-12-11T09:16:24.416Z,97225.89
2017-12-11T09:18:55.703Z,97209.36
2017-12-11T09:21:26.700Z,97202.87
2017-12-11T09:23:58.111Z,97200.02
2017-12-11T09:26:29.089Z,97202.09
2017-12-11T09:29:00.555Z,97214.80
2017-12-11T09:31:31.542Z,97183.64
2017-12-11T09:34:04.017Z,97185.17
2017-12-11T09:36:35.321Z,97159.75
2017-12-11T09:39:06.540Z,97168.00
2017-12-11T09:41:37.606Z,97167.98
2017-12-11T09:44:10.484Z,97134.91
2017-12-11T09:46:42.457Z,97135.89
2017-12-11T09:49:13.729Z,97130.16
2017-12-11T09:51:44.707Z,97151.08
2017-12-11T09:54:15.876Z,97125.02
2017-12-11T09:56:48.498Z,97120.92
2017-12-11T09:59:19.548Z,97119.77
2017-12-11T10:01:50.589Z,97108.94
2017-12-11T10:04:22.857Z,97116.38
2017-12-11T10:06:53.897Z,97100.58
2017-12-11T10:09:25.240Z,97092.32
2017-12-11T10:11:56.221Z,97105.57
2017-12-11T10:14:27.240Z,97112.69
2017-12-11T10:16:58.535Z,97111.48
2017-12-11T10:19:29.578Z,97101.70
2017-12-11T10:22:00.549Z,97080.60
2017-12-11T10:24:31.576Z,97086.02
2017-12-11T10:27:02.954Z,97082.11
2017-12-11T10:29:34.544Z,97071.04
2017-12-11T10:32:05.682Z,97057.33
2017-12-11T10:34:37.135Z,97071.98
2017-12-11T10:37:08.129Z,97069.22
2017-12-11T10:39:39.309Z,97067.53
2017-12-11T10:42:12.105Z,97073.59
2017-12-11T10:44:43.088Z,97064.56
2017-12-11T10:47:14.059Z,97058.19
2017-12-11T10:49:45.326Z,97056.23
2017-12-11T10:52:16.431Z,97045.81
2017-12-11T10:54:47.449Z,97042.84
2017-12-11T10:57:18.861Z,97026.64
2017-12-11T10:59:55.055Z,97031.66
2017-12-11T11:02:30.609Z,97023.52
2017-12-11T11:05:04.906Z,97026.00
2017-12-11T11:07:35.876Z,97018.89
2017-12-11T11:10:07.725Z,97022.97
2017-12-11T11:12:39.318Z,97015.45
2017-12-11T11:15:12.479Z,97018.16
2017-12-11T11:17:43.718Z,97004.98
2017-12-11T11:20:15.850Z,97013.06
2017-12-11T11:22:46.804Z,97006.42
2017-12-11T11:25:18.028Z,96983.08
2017-12-11T11:27:49.022Z,96983.72
2017-12-11T11:30:20.070Z,96970.38
2017-12-11T11:32:52.728Z,96977.53
2017-12-11T11:35:23.657Z,96982.02
2017-12-11T11:37:55.181Z,96973.42
2017-12-11T11:40:26.185Z,96959.27
2017-12-11T11:42:57.293Z,96942.88
2017-12-11T11:45:28.605Z,96951.23
2017-12-11T11:47:59.653Z,96939.00
2017-12-11T11:50:30.638Z,96950.06
2017-12-11T11:53:02.257Z,96955.06
2017-12-11T11:55:33.257Z,96960.66
2017-12-11T11:58:09.031Z,96963.12
2017-12-11T12:00:42.185Z,96970.64
2017-12-11T12:03:13.377Z,96972.51
2017-12-11T12:05:45.931Z,96979.99
2017-12-11T12:08:17.268Z,96990.04
2017-12-11T12:10:48.544Z,96986.02
2017-12-11T12:13:19.684Z,97005.97
2017-12-11T12:15:50.644Z,97004.56
2017-12-11T12:18:22.282Z,97015.89
2017-12-11T12:20:53.303Z,97021.73
2017-12-11T12:23:24.293Z,97041.17
2017-12-11T12:25:55.579Z,97054.39
2017-12-11T12:28:26.617Z,97097.61
2017-12-11T12:30:57.845Z,97121.70
2017-12-11T12:33:29.295Z,97129.22
2017-12-11T12:36:00.274Z,97150.59
2017-12-11T12:38:31.509Z,97178.44
2017-12-11T12:41:02.958Z,97182.77
2017-12-11T12:43:33.969Z,97182.58
2017-12-11T12:46:07.101Z,97207.95
2017-12-11T12:48:38.368Z,97197.19
2017-12-11T12:51:09.612Z,97185.69
2017-12-11T12:53:40.754Z,97186.42
2017-12-11T12:56:13.617Z,97178.20
2017-12-11T12:58:44.629Z,97163.02
2017-12-11T13:01:15.572Z,97190.11
2017-12-11T13:03:46.847Z,97180.77
2017-12-11T13:06:20.161Z,97184.98
2017-12-11T13:08:51.449Z,97189.42
2017-12-11T13:11:22.442Z,97191.55
2017-12-11T13:13:53.493Z,97166.67
2017-12-11T13:16:24.821Z,97161.38
2017-12-11T13:18:56.112Z,97158.29
2017-12-11T13:21:27.052Z,97155.28
2017-12-11T13:23:58.320Z,97157.33
2017-12-11T13:26:29.288Z,97150.72
2017-12-11T13:29:00.505Z,97149.05
2017-12-11T13:31:31.729Z,97145.22
2017-12-11T13:36:30.648Z,97151.32
2017-12-11T13:39:02.550Z,97150.18
2017-12-11T13:41:33.645Z,97171.14
2017-12-11T13:44:12.904Z,97173.66
2017-12-11T13:46:44.211Z,97188.05
2017-12-11T13:49:15.564Z,97191.48
2017-12-11T13:51:47.232Z,97196.91
2017-12-11T13:54:18.683Z,97202.99
2017-12-11T13:56:50.375Z,97205.84
2017-12-11T13:59:21.534Z,97206.50
2017-12-11T14:01:52.765Z,97219.66
2017-12-11T14:04:23.729Z,97225.80
2017-12-11T14:06:54.868Z,97225.30
2017-12-11T14:09:26.092Z,97237.34
2017-12-11T14:11:57.109Z,97244.99
2017-12-11T14:14:28.352Z,97266.40
2017-12-11T14:16:59.359Z,97264.97
2017-12-11T14:19:30.686Z,97270.52
2017-12-11T14:22:04.545Z,97266.38
2017-12-11T14:24:35.556Z,97250.14
2017-12-11T14:30:49.243Z,97239.95
2017-12-11T14:33:20.217Z,97232.80
2017-12-11T14:35:51.474Z,97239.12
2017-12-11T14:38:22.529Z,97223.22
2017-12-11T14:40:53.544Z,97193.73
2017-12-11T14:43:24.839Z,97184.25
2017-12-11T14:45:55.814Z,97187.28
2017-12-11T14:48:26.888Z,97172.67
2017-12-11T14:50:58.179Z,97165.04
2017-12-11T14:53:29.467Z,97175.42
2017-12-11T14:56:00.739Z,97175.80
2017-12-11T14:58:32.870Z,97167.72
2017-12-11T15:01:04.032Z,97171.14
2017-12-11T15:03:35.306Z,97168.88
2017-12-11T15:06:07.640Z,97177.55
2017-12-11T15:08:38.749Z,97189.53
2017-12-11T15:11:10.211Z,97190.23
2017-12-11T15:13:41.196Z,97212.03
2017-12-11T15:16:12.931Z,97228.38
2017-12-11T15:18:44.193Z,97224.73
2017-12-11T15:21:15.209Z,97227.09
2017-12-11T15:23:46.502Z,97217.94
2017-12-11T15:26:18.445Z,97206.57
2017-12-11T15:28:51.945Z,97189.88
2017-12-11T15:31:22.964Z,97161.72
2017-12-11T15:33:54.960Z,97197.54
2017-12-11T15:36:26.328Z,97217.36
2017-12-11T15:38:59.264Z,97267.05
2017-12-11T15:41:30.299Z,97263.88
2017-12-11T15:44:03.091Z,97270.84
2017-12-11T15:46:34.612Z,97260.18
2017-12-11T15:49:05.703Z,97263.80
2017-12-11T15:51:38.030Z,97263.50
2017-12-11T15:54:10.326Z,97251.02
2017-12-11T15:56:43.480Z,97261.55
2017-12-11T15:59:14.505Z,97266.24
2017-12-11T16:01:47.292Z,97259.56
2017-12-11T16:04:18.676Z,97256.94
2017-12-11T16:06:50.534Z,97273.49
2017-12-11T16:09:21.717Z,97275.17
2017-12-11T16:11:53.865Z,97283.88
2017-12-11T16:14:25.025Z,97300.00
2017-12-11T16:16:56.030Z,97296.18
2017-12-11T16:19:27.397Z,97298.42
2017-12-11T16:21:58.396Z,97296.18
2017-12-11T16:24:29.740Z,97290.83
2017-12-11T16:27:02.097Z,97301.92
2017-12-11T16:29:33.371Z,97300.78
2017-12-11T16:32:08.291Z,97287.50
2017-12-11T16:34:39.752Z,97294.97
2017-12-11T16:37:10.846Z,97300.46
2017-12-11T16:39:42.267Z,97303.91
2017-12-11T16:42:16.136Z,97314.27
2017-12-11T16:44:49.474Z,97318.37
2017-12-11T16:47:20.995Z,97309.84
2017-12-11T16:49:52.033Z,97295.02
2017-12-11T16:52:23.372Z,97286.09
2017-12-11T16:54:54.665Z,97288.92
2017-12-11T16:57:25.698Z,97276.60
2017-12-11T16:59:57.119Z,97260.67
2017-12-11T17:02:28.206Z,97270.50
2017-12-11T17:04:59.187Z,97290.06
2017-12-11T17:07:30.569Z,97305.69
2017-12-11T17:10:04.748Z,97300.89
2017-12-11T17:12:36.086Z,97315.50
2017-12-11T17:15:07.110Z,97327.31
2017-12-11T17:17:38.305Z,97319.09
2017-12-11T17:20:12.178Z,97310.33
2017-12-11T17:22:43.241Z,97312.08
2017-12-11T17:25:14.555Z,97321.88
2017-12-11T17:27:47.793Z,97326.65
2017-12-11T17:30:20.664Z,97334.33
2017-12-11T17:32:51.910Z,97336.09
2017-12-11T17:35:22.916Z,97338.58
2017-12-11T17:37:53.909Z,97332.96
2017-12-11T17:40:25.270Z,97339.66
2017-12-11T17:42:56.270Z,97350.70
2017-12-11T17:45:27.321Z,97369.34
2017-12-11T17:47:58.779Z,97370.11
2017-12-11T17:50:29.857Z,97388.11
2017-12-11T17:53:01.351Z,97397.44
2017-12-11T17:55:33.756Z,97394.55
2017-12-11T17:58:09.041Z,97399.31
2017-12-11T18:00:40.951Z,97410.34
2017-12-11T18:03:13.049Z,97403.45
2017-12-11T18:05:59.853Z,97401.23
2017-12-11T18:08:30.866Z,97406.95
2017-12-11T18:11:02.661Z,97394.91
2017-12-11T18:13:34.471Z,97398.90
2017-12-11T18:16:08.810Z,97399.61
2017-12-11T18:18:43.567Z,97391.20
2017-12-11T18:21:15.186Z,97393.87
2017-12-11T18:23:46.367Z,97403.66
2017-12-11T18:26:19.326Z,97409.09
2017-12-11T18:28:52.229Z,97411.45
2017-12-11T18:31:23.241Z,97407.41
2017-12-11T18:33:55.077Z,97412.33
2017-12-11T18:36:26.395Z,97416.52
2017-12-11T18:38:57.520Z,97423.02
2017-12-11T18:41:29.144Z,97431.68
2017-12-11T18:44:00.524Z,97447.94
2017-12-11T18:46:33.020Z,97449.16
2017-12-11T18:49:05.114Z,97449.63
2017-12-11T18:51:36.128Z,97450.05
2017-12-11T18:54:08.907Z,97441.58
2017-12-11T18:56:42.726Z,97434.20
2017-12-11T18:59:13.788Z,97441.31
2017-12-11T19:01:45.845Z,97435.81
2017-12-11T19:04:18.990Z,97432.21
2017-12-11T19:06:50.739Z,97428.50
2017-12-11T19:09:21.890Z,97434.00
2017-12-11T19:11:53.432Z,97443.03
2017-12-11T19:14:24.465Z,97445.86
2017-12-11T19:16:55.902Z,97438.48
2017-12-11T19:19:27.372Z,97438.64
2017-12-11T19:21:58.444Z,97434.09
2017-12-11T19:24:29.771Z,97440.78
2017-12-11T19:27:01.447Z,97441.58
2017-12-11T19:29:32.422Z,97443.33
2017-12-11T19:32:06.389Z,97451.62
2017-12-11T19:34:37.652Z,97455.33
2017-12-11T19:37:08.691Z,97464.22
2017-12-11T19:39:42.133Z,97474.53
2017-12-11T19:42:14.497Z,97480.56
2017-12-11T19:44:46.522Z,97480.09
2017-12-11T19:47:17.634Z,97491.50
2017-12-11T19:49:51.473Z,97497.75
2017-12-11T19:52:23.520Z,97494.03
2017-12-11T19:54:56.671Z,97505.75
2017-12-11T19:57:28.005Z,97483.20
2017-12-11T19:59:59.234Z,97502.88
2017-12-11T20:02:31.616Z,97503.98
2017-12-11T20:05:03.161Z,97496.02
2017-12-11T20:07:34.469Z,97491.73
2017-12-11T20:10:08.866Z,97493.09
2017-12-11T20:12:40.200Z,97502.67
2017-12-11T20:15:11.633Z,97489.06
2017-12-11T20:17:44.638Z,97506.13
2017-12-11T20:20:18.175Z,97499.73
2017-12-11T20:32:58.881Z,97521.98
2017-12-11T20:35:29.930Z,97522.25
2017-12-11T20:38:01.206Z,97526.80
2017-12-11T20:40:32.501Z,97537.20
2017-12-11T20:43:03.875Z,97536.70
2017-12-11T20:45:35.493Z,97535.06
2017-12-11T20:48:08.840Z,97532.77
2017-12-11T20:50:40.079Z,97544.22
2017-12-11T20:53:11.755Z,97546.48
2017-12-11T20:55:45.415Z,97541.24
2017-12-11T20:58:23.489Z,97548.68
2017-12-11T21:00:54.799Z,97553.55
2017-12-11T21:03:27.270Z,97548.27
2017-12-11T21:06:14.580Z,97553.86
2017-12-11T21:14:36.059Z,97535.70
